createdAt,value
2022-08-18T00:01:13.407Z,6.20
2022-08-18T00:03:56.707Z,6.10
2022-08-18T00:06:29.502Z,5.50
2022-08-18T00:08:59.234Z,6.90
2022-08-18T00:11:28.106Z,8.10
2022-08-18T00:14:14.539Z,6.23
2022-08-18T00:16:52.561Z,6.40
2022-08-18T00:19:46.826Z,6.93
2022-08-18T00:22:09.336Z,6.60
2022-08-18T00:24:48.550Z,7.07
2022-08-18T00:27:23.297Z,6.23
2022-08-18T00:29:54.625Z,6.67
2022-08-18T00:32:25.204Z,13.20
2022-08-18T00:35:51.403Z,6.03
2022-08-18T00:38:23.557Z,6.17
2022-08-18T00:40:58.073Z,6.37
2022-08-18T00:43:31.921Z,5.93
2022-08-18T00:46:02.903Z,8.40
2022-08-18T00:48:31.123Z,5.90
2022-08-18T00:51:01.272Z,7.60
2022-08-18T00:53:33.548Z,6.73
2022-08-18T00:56:07.026Z,5.07
2022-08-18T00:58:37.942Z,7.33
2022-08-18T01:01:08.460Z,8.10
2022-08-18T01:03:40.105Z,7.73
2022-08-18T01:06:16.952Z,5.67
2022-08-18T01:08:45.850Z,5.63
2022-08-18T01:11:14.854Z,5.33
2022-08-18T01:13:43.531Z,8.90
2022-08-18T01:16:30.655Z,6.20
2022-08-18T01:19:16.743Z,6.63
2022-08-18T01:21:53.816Z,5.03
2022-08-18T01:24:46.930Z,5.30
2022-08-18T01:27:18.046Z,6.60
2022-08-18T01:29:46.400Z,9.80
2022-08-18T01:32:19.740Z,5.83
2022-08-18T01:34:48.483Z,4.83
2022-08-18T01:37:18.942Z,5.70
2022-08-18T01:41:21.839Z,5.00
2022-08-18T01:42:37.700Z,5.47
2022-08-18T01:45:07.661Z,10.27
2022-08-18T01:47:48.042Z,4.90
2022-08-18T01:50:17.374Z,4.83
2022-08-18T01:52:45.542Z,5.13
2022-08-18T01:55:15.131Z,5.17
2022-08-18T01:57:45.387Z,6.43
2022-08-18T02:00:16.613Z,5.20
2022-08-18T02:02:45.029Z,4.90
2022-08-18T02:05:21.691Z,5.50
2022-08-18T02:07:54.173Z,5.53
2022-08-18T02:10:24.269Z,5.47
2022-08-18T02:12:53.693Z,4.50
2022-08-18T02:15:21.893Z,5.40
2022-08-18T02:17:50.771Z,7.93
2022-08-18T02:20:20.265Z,4.97
2022-08-18T02:22:49.142Z,4.83
2022-08-18T02:25:17.999Z,5.67
2022-08-18T02:27:51.558Z,5.20
2022-08-18T02:30:21.381Z,4.93
2022-08-18T02:32:49.726Z,5.20
2022-08-18T02:35:18.363Z,6.13
2022-08-18T02:37:48.369Z,5.50
2022-08-18T02:40:18.146Z,5.63
2022-08-18T02:42:48.041Z,5.17
2022-08-18T02:45:16.450Z,4.93
2022-08-18T02:47:45.133Z,5.63
2022-08-18T02:50:13.933Z,4.87
2022-08-18T02:52:42.133Z,5.20
2022-08-18T02:55:12.192Z,5.37
2022-08-18T02:57:43.661Z,4.83
2022-08-18T03:00:16.172Z,5.80
2022-08-18T03:02:47.663Z,5.97
2022-08-18T03:05:16.187Z,6.20
2022-08-18T03:07:44.399Z,6.97
2022-08-18T03:10:32.403Z,5.40
2022-08-18T03:13:02.426Z,6.37
2022-08-18T03:15:31.971Z,5.97
2022-08-18T03:18:01.393Z,6.30
2022-08-18T03:20:30.548Z,5.37
2022-08-18T03:22:59.934Z,6.13
2022-08-18T03:25:34.688Z,5.93
2022-08-18T03:28:04.293Z,5.30
2022-08-18T03:30:33.919Z,5.70
2022-08-18T03:33:02.099Z,5.50
2022-08-18T03:35:30.458Z,5.50
2022-08-18T03:38:00.486Z,5.77
2022-08-18T03:40:28.660Z,5.53
2022-08-18T03:42:57.361Z,5.20
2022-08-18T03:45:32.102Z,5.70
2022-08-18T03:48:02.019Z,5.60
2022-08-18T03:50:32.316Z,5.83
2022-08-18T03:53:00.599Z,5.80
2022-08-18T03:55:29.404Z,5.57
2022-08-18T03:58:03.010Z,5.53
2022-08-18T04:00:32.208Z,5.33
2022-08-18T04:03:04.330Z,5.30
2022-08-18T04:05:32.572Z,6.00
2022-08-18T04:08:00.785Z,5.80
2022-08-18T04:10:28.932Z,5.60
2022-08-18T04:12:57.102Z,5.70
2022-08-18T04:15:25.309Z,5.40
2022-08-18T04:18:02.948Z,5.07
2022-08-18T04:20:33.830Z,6.30
2022-08-18T04:23:02.449Z,5.50
2022-08-18T04:25:33.496Z,5.90
2022-08-18T04:28:03.727Z,5.10
2022-08-18T04:30:32.397Z,5.60
2022-08-18T04:33:02.741Z,5.47
2022-08-18T04:35:33.812Z,5.10
2022-08-18T04:38:01.974Z,4.90
2022-08-18T04:40:34.059Z,5.93
2022-08-18T04:43:02.974Z,6.13
2022-08-18T04:45:31.174Z,5.80
2022-08-18T04:47:59.330Z,6.03
2022-08-18T04:50:27.512Z,4.37
2022-08-18T04:53:14.458Z,5.00
2022-08-18T04:55:48.478Z,6.07
2022-08-18T04:58:18.973Z,5.13
2022-08-18T05:00:47.638Z,10.03
2022-08-18T05:03:15.981Z,5.57
2022-08-18T05:05:44.089Z,5.20
2022-08-18T05:08:13.683Z,5.30
2022-08-18T05:10:41.789Z,5.17
2022-08-18T05:13:10.029Z,5.80
2022-08-18T05:16:07.015Z,5.67
2022-08-18T05:18:28.640Z,6.27
2022-08-18T05:20:57.780Z,5.83
2022-08-18T05:23:30.528Z,6.07
2022-08-18T05:25:59.820Z,5.30
2022-08-18T05:28:28.421Z,6.40
2022-08-18T05:30:57.209Z,5.50
2022-08-18T05:33:29.050Z,6.20
2022-08-18T05:36:05.301Z,6.30
2022-08-18T05:38:42.684Z,5.60
2022-08-18T05:41:13.996Z,5.77
2022-08-18T05:43:51.238Z,5.80
2022-08-18T05:46:21.961Z,6.57
2022-08-18T05:48:50.231Z,5.70
2022-08-18T05:51:22.921Z,6.00
2022-08-18T05:54:10.160Z,5.43
2022-08-18T05:56:47.752Z,5.60
2022-08-18T05:59:23.032Z,5.63
2022-08-18T06:01:57.279Z,6.33
2022-08-18T06:04:35.820Z,5.73
2022-08-18T06:07:06.855Z,5.90
2022-08-18T06:09:39.996Z,5.37
2022-08-18T06:12:29.855Z,5.23
2022-08-18T06:15:05.989Z,5.93
2022-08-18T06:17:51.469Z,6.33
2022-08-18T06:20:26.176Z,5.60
2022-08-18T06:23:02.157Z,6.10
2022-08-18T06:25:36.674Z,5.53
2022-08-18T06:28:07.905Z,5.70
2022-08-18T06:30:49.590Z,5.33
2022-08-18T06:33:45.884Z,5.67
2022-08-18T06:36:21.649Z,5.70
2022-08-18T06:38:57.206Z,5.87
2022-08-18T06:41:43.036Z,5.20
2022-08-18T06:44:15.171Z,5.87
2022-08-18T06:46:47.237Z,5.57
2022-08-18T06:49:40.027Z,5.27
2022-08-18T06:52:22.817Z,5.83
2022-08-18T06:54:51.738Z,6.00
2022-08-18T06:57:31.140Z,5.40
2022-08-18T07:00:02.004Z,6.20
2022-08-18T07:02:45.318Z,6.27
2022-08-18T07:05:23.447Z,6.03
2022-08-18T07:08:11.914Z,5.80
2022-08-18T07:10:41.725Z,6.07
2022-08-18T07:13:17.947Z,6.30
2022-08-18T07:15:48.282Z,5.87
2022-08-18T07:18:24.707Z,6.17
2022-08-18T07:20:54.877Z,5.80
2022-08-18T07:23:27.726Z,5.70
2022-08-18T07:26:08.899Z,5.47
2022-08-18T07:28:41.936Z,6.30
2022-08-18T07:31:17.777Z,5.93
2022-08-18T07:33:51.607Z,5.90
2022-08-18T07:36:21.747Z,5.83
2022-08-18T07:38:54.679Z,6.57
2022-08-18T07:41:26.921Z,6.00
2022-08-18T07:44:07.595Z,8.27
2022-08-18T07:46:45.045Z,5.90
2022-08-18T07:49:21.989Z,6.80
2022-08-18T07:51:53.541Z,5.97
2022-08-18T07:54:49.362Z,6.47
2022-08-18T07:57:24.330Z,5.80
2022-08-18T07:59:59.903Z,5.43
2022-08-18T08:02:37.828Z,5.93
2022-08-18T08:05:13.598Z,5.53
2022-08-18T08:07:47.268Z,5.30
2022-08-18T08:10:32.414Z,8.10
2022-08-18T08:13:11.907Z,5.90
2022-08-18T08:15:51.860Z,7.50
2022-08-18T08:18:24.795Z,6.50
2022-08-18T08:20:56.356Z,6.20
2022-08-18T08:23:30.866Z,6.93
2022-08-18T08:26:08.896Z,6.90
2022-08-18T08:28:42.604Z,6.10
2022-08-18T08:31:36.185Z,6.33
2022-08-18T08:34:09.015Z,6.43
2022-08-18T08:36:40.307Z,6.90
2022-08-18T08:39:14.338Z,5.70
2022-08-18T08:41:45.880Z,6.67
2022-08-18T08:44:22.873Z,6.00
2022-08-18T08:46:55.364Z,5.77
2022-08-18T08:49:37.076Z,6.90
2022-08-18T08:52:11.567Z,7.60
2022-08-18T08:54:46.555Z,6.37
2022-08-18T08:57:15.672Z,6.20
2022-08-18T08:59:47.577Z,6.33
2022-08-18T09:02:47.889Z,5.93
2022-08-18T09:05:20.025Z,7.30
2022-08-18T09:08:07.386Z,5.77
2022-08-18T09:10:50.736Z,6.23
2022-08-18T09:13:35.256Z,6.03
2022-08-18T09:16:16.613Z,6.40
2022-08-18T09:18:56.085Z,6.27
2022-08-18T09:21:37.535Z,6.17
2022-08-18T09:24:22.365Z,5.63
2022-08-18T09:26:54.036Z,5.70
2022-08-18T09:29:26.288Z,6.50
2022-08-18T09:32:30.492Z,5.67
2022-08-18T09:35:09.340Z,5.57
2022-08-18T09:37:46.243Z,6.73
2022-08-18T09:43:34.307Z,5.10
2022-08-18T09:46:06.180Z,7.07
2022-08-18T09:48:35.956Z,7.60
2022-08-18T09:51:40.171Z,6.00
2022-08-18T09:54:20.929Z,5.67
2022-08-18T09:57:21.709Z,5.67
2022-08-18T10:00:12.810Z,7.13
2022-08-18T10:03:25.808Z,6.00
2022-08-18T10:06:20.702Z,6.60
2022-08-18T10:09:18.056Z,6.83
2022-08-18T10:12:21.529Z,6.90
2022-08-18T10:15:33.526Z,5.87
2022-08-18T10:18:30.950Z,6.13
2022-08-18T10:21:05.642Z,6.10
2022-08-18T10:23:48.044Z,5.57
2022-08-18T10:27:09.549Z,5.40
2022-08-18T10:29:54.140Z,5.87
2022-08-18T10:32:41.634Z,6.20
2022-08-18T10:35:52.833Z,5.43
2022-08-18T10:38:25.424Z,5.30
2022-08-18T10:41:10.043Z,5.07
2022-08-18T10:43:57.572Z,5.83
2022-08-18T10:46:32.661Z,11.87
2022-08-18T10:49:05.479Z,5.67
2022-08-18T10:51:59.588Z,5.10
2022-08-18T10:54:39.124Z,5.53
2022-08-18T10:57:27.558Z,6.50
2022-08-18T11:00:00.661Z,5.63
2022-08-18T11:03:21.275Z,6.17
2022-08-18T11:05:46.137Z,5.30
2022-08-18T11:08:17.469Z,6.10
2022-08-18T11:11:32.676Z,6.00
2022-08-18T11:13:48.340Z,6.00
2022-08-18T11:16:27.959Z,14.03
2022-08-18T11:19:00.419Z,6.30
2022-08-18T11:21:37.426Z,5.50
2022-08-18T11:24:13.913Z,6.43
2022-08-18T11:29:37.410Z,6.30
2022-08-18T11:32:11.134Z,6.50
2022-08-18T11:34:45.486Z,6.03
2022-08-18T11:37:28.316Z,6.07
2022-08-18T11:41:09.608Z,6.03
2022-08-18T11:43:29.786Z,6.50
2022-08-18T11:46:16.928Z,5.43
2022-08-18T11:48:52.031Z,5.80
2022-08-18T11:51:25.531Z,8.00
2022-08-18T11:56:45.613Z,6.20
2022-08-18T11:59:52.541Z,5.97
2022-08-18T12:02:20.924Z,5.60
2022-08-18T12:04:52.670Z,5.67
2022-08-18T12:07:29.927Z,5.70
2022-08-18T12:10:19.027Z,5.33
2022-08-18T12:15:46.958Z,5.37
2022-08-18T12:18:28.530Z,6.20
2022-08-18T12:20:58.855Z,5.40
2022-08-18T12:23:39.022Z,6.33
2022-08-18T12:26:27.331Z,5.50
2022-08-18T12:29:01.901Z,6.13
2022-08-18T12:31:42.620Z,5.70
2022-08-18T12:34:26.235Z,5.73
2022-08-18T12:36:56.409Z,5.77
2022-08-18T12:39:26.218Z,5.43
2022-08-18T12:41:54.348Z,4.83
2022-08-18T12:44:22.820Z,5.70
2022-08-18T12:46:56.092Z,5.23
2022-08-18T12:49:26.582Z,4.80
2022-08-18T12:51:55.910Z,5.27
2022-08-18T12:54:25.700Z,6.20
2022-08-18T12:56:57.763Z,5.77
2022-08-18T12:59:26.251Z,5.63
2022-08-18T13:02:00.802Z,5.07
2022-08-18T13:04:29.088Z,5.33
2022-08-18T13:07:04.830Z,5.33
2022-08-18T13:09:53.636Z,4.67
2022-08-18T13:12:24.069Z,4.53
2022-08-18T13:14:55.158Z,5.07
2022-08-18T13:17:29.425Z,5.30
2022-08-18T13:20:02.907Z,5.57
2022-08-18T13:22:32.455Z,4.70
2022-08-18T13:25:03.778Z,5.70
2022-08-18T13:27:33.617Z,5.28
2022-08-18T13:30:29.102Z,5.20
2022-08-18T13:32:59.007Z,4.85
2022-08-18T13:35:29.896Z,4.97
2022-08-18T13:38:14.206Z,5.00
2022-08-18T13:40:59.568Z,4.95
2022-08-18T13:43:32.222Z,6.47
2022-08-18T13:46:01.572Z,5.40
2022-08-18T13:48:30.570Z,8.60
2022-08-18T13:50:59.866Z,4.80
2022-08-18T13:53:29.752Z,5.83
2022-08-18T13:56:01.234Z,5.63
2022-08-18T13:58:30.354Z,6.97
2022-08-18T14:03:48.505Z,5.37
2022-08-18T14:06:22.578Z,6.07
2022-08-18T14:08:52.408Z,5.40
2022-08-18T14:11:25.873Z,5.00
2022-08-18T14:13:54.221Z,4.90
2022-08-18T14:16:23.299Z,5.50
2022-08-18T14:19:12.588Z,5.03
2022-08-18T14:22:01.188Z,5.17
2022-08-18T14:24:49.074Z,4.73
2022-08-18T14:27:19.022Z,5.47
2022-08-18T14:29:49.848Z,5.43
2022-08-18T14:32:29.029Z,5.63
2022-08-18T14:34:58.499Z,5.07
2022-08-18T14:37:29.711Z,5.30
2022-08-18T14:39:58.428Z,7.33
2022-08-18T14:42:40.907Z,5.77
2022-08-18T14:45:18.138Z,5.87
2022-08-18T14:47:59.841Z,5.57
2022-08-18T14:50:28.129Z,5.73
2022-08-18T14:52:56.382Z,4.80
2022-08-18T14:55:27.176Z,6.13
2022-08-18T14:57:56.562Z,5.13
2022-08-18T15:00:28.656Z,6.80
2022-08-18T15:02:59.695Z,5.60
2022-08-18T15:05:34.390Z,5.40
2022-08-18T15:08:04.017Z,5.10
2022-08-18T15:10:32.666Z,5.70
2022-08-18T15:13:02.210Z,6.37
2022-08-18T15:15:42.339Z,6.73
2022-08-18T15:18:22.801Z,6.47
2022-08-18T15:21:35.315Z,7.23
2022-08-18T15:24:20.519Z,5.20
2022-08-18T15:26:51.875Z,6.77
2022-08-18T15:29:29.444Z,4.90
2022-08-18T15:32:02.289Z,4.70
2022-08-18T15:34:45.979Z,5.33
2022-08-18T15:37:16.062Z,6.20
2022-08-18T15:39:51.738Z,5.30
2022-08-18T15:42:24.566Z,5.80
2022-08-18T15:44:54.505Z,5.23
2022-08-18T15:47:25.260Z,4.90
2022-08-18T15:49:54.924Z,5.47
2022-08-18T15:52:25.917Z,6.83
2022-08-18T15:54:58.337Z,5.07
2022-08-18T15:57:38.803Z,5.40
2022-08-18T16:00:12.280Z,5.50
2022-08-18T16:02:48.553Z,5.00
2022-08-18T16:05:21.820Z,5.17
2022-08-18T16:07:49.914Z,6.00
2022-08-18T16:10:19.338Z,5.73
2022-08-18T16:12:47.809Z,8.70
2022-08-18T16:15:19.335Z,5.43
2022-08-18T16:17:50.081Z,5.87
2022-08-18T16:20:19.077Z,5.13
2022-08-18T16:22:47.911Z,6.03
2022-08-18T16:25:16.692Z,5.87
2022-08-18T16:27:45.267Z,5.47
2022-08-18T16:30:17.499Z,6.77
2022-08-18T16:32:46.943Z,5.10
2022-08-18T16:35:15.550Z,5.47
2022-08-18T16:37:44.443Z,5.60
2022-08-18T16:40:13.660Z,6.10
2022-08-18T16:42:42.403Z,6.57
2022-08-18T16:45:13.375Z,6.57
2022-08-18T16:47:43.014Z,6.13
2022-08-18T16:50:13.685Z,5.23
2022-08-18T16:52:42.388Z,5.27
2022-08-18T16:55:12.152Z,5.63
2022-08-18T16:57:58.737Z,5.23
2022-08-18T17:00:45.781Z,5.80
2022-08-18T17:03:42.099Z,5.47
2022-08-18T17:06:12.253Z,5.43
2022-08-18T17:08:41.135Z,5.10
2022-08-18T17:11:11.317Z,5.80
2022-08-18T17:13:40.295Z,6.93
2022-08-18T17:16:08.886Z,6.27
2022-08-18T17:18:38.978Z,5.97
2022-08-18T17:21:08.669Z,7.13
2022-08-18T17:23:39.123Z,6.00
2022-08-18T17:26:08.876Z,8.03
2022-08-18T17:28:50.505Z,5.83
2022-08-18T17:31:20.127Z,6.57
2022-08-18T17:33:50.257Z,5.70
2022-08-18T17:36:22.049Z,6.37
2022-08-18T17:39:03.739Z,5.97
2022-08-18T17:41:31.872Z,6.63
2022-08-18T17:44:02.078Z,7.37
2022-08-18T17:46:38.767Z,6.33
2022-08-18T17:49:12.547Z,6.60
2022-08-18T17:51:44.689Z,9.27
2022-08-18T17:54:18.398Z,7.93
2022-08-18T17:56:51.138Z,6.27
2022-08-18T17:59:45.594Z,6.10
2022-08-18T18:02:24.559Z,6.40
2022-08-18T18:05:00.707Z,7.17
2022-08-18T18:07:30.511Z,6.47
2022-08-18T18:10:04.981Z,8.13
2022-08-18T18:12:34.852Z,7.17
2022-08-18T18:15:05.794Z,6.40
2022-08-18T18:17:37.926Z,6.00
2022-08-18T18:20:27.603Z,7.00
2022-08-18T18:22:55.643Z,6.97
2022-08-18T18:25:34.495Z,6.70
2022-08-18T18:28:02.964Z,8.50
2022-08-18T18:30:32.897Z,7.13
2022-08-18T18:33:03.254Z,6.83
2022-08-18T18:35:34.464Z,7.00
2022-08-18T18:38:04.346Z,7.07
2022-08-18T18:40:35.748Z,6.70
2022-08-18T18:43:23.438Z,10.63
2022-08-18T18:46:03.664Z,29.40
2022-08-18T18:48:45.230Z,13.83
2022-08-18T18:51:33.797Z,7.67
2022-08-18T18:54:12.786Z,7.63
2022-08-18T18:56:45.780Z,11.23
2022-08-18T18:59:26.785Z,15.17
2022-08-18T19:01:59.018Z,9.30
2022-08-18T19:04:32.095Z,13.73
2022-08-18T19:07:06.787Z,10.93
2022-08-18T19:09:39.826Z,10.53
2022-08-18T19:12:14.285Z,12.07
2022-08-18T19:14:59.508Z,11.97
2022-08-18T19:17:35.588Z,13.90
2022-08-18T19:20:06.635Z,9.37
2022-08-18T19:22:41.887Z,9.57
2022-08-18T19:25:16.074Z,10.17
2022-08-18T19:27:49.769Z,9.53
2022-08-18T19:30:19.104Z,9.80
2022-08-18T19:32:50.202Z,10.17
2022-08-18T19:35:20.155Z,9.80
2022-08-18T19:38:01.934Z,9.37
2022-08-18T19:40:38.322Z,10.27
2022-08-18T19:43:11.657Z,10.97
2022-08-18T19:45:47.682Z,10.73
2022-08-18T19:48:20.557Z,9.83
2022-08-18T19:50:53.525Z,11.23
2022-08-18T19:53:44.414Z,11.00
2022-08-18T19:56:27.795Z,11.83
2022-08-18T19:59:18.603Z,11.77
2022-08-18T20:01:56.863Z,10.77
2022-08-18T20:04:39.135Z,10.83
2022-08-18T20:07:19.284Z,11.70
2022-08-18T20:10:06.243Z,11.13
2022-08-18T20:12:49.423Z,12.93
2022-08-18T20:15:21.822Z,12.10
2022-08-18T20:18:07.028Z,12.43
2022-08-18T20:20:38.218Z,13.47
2022-08-18T20:23:30.615Z,12.50
2022-08-18T20:26:00.137Z,13.13
2022-08-18T20:28:38.544Z,13.03
2022-08-18T20:31:17.543Z,12.57
2022-08-18T20:33:47.885Z,12.77
2022-08-18T20:36:28.271Z,12.63
2022-08-18T20:38:57.984Z,14.27
2022-08-18T20:41:41.294Z,12.83
2022-08-18T20:44:38.118Z,13.30
2022-08-18T20:47:19.014Z,13.53
2022-08-18T20:49:58.174Z,12.87
2022-08-18T20:52:37.938Z,13.20
2022-08-18T20:55:15.444Z,16.77
2022-08-18T20:57:47.013Z,14.67
2022-08-18T21:00:22.687Z,15.43
2022-08-18T21:02:57.086Z,14.70
2022-08-18T21:05:28.406Z,14.80
2022-08-18T21:08:04.841Z,14.53
2022-08-18T21:10:34.527Z,14.77
2022-08-18T21:13:06.209Z,13.97
2022-08-18T21:15:38.440Z,15.50
2022-08-18T21:18:08.846Z,15.17
2022-08-18T21:20:37.008Z,16.10
2022-08-18T21:23:09.032Z,14.60
2022-08-18T21:25:37.490Z,15.50
2022-08-18T21:28:07.619Z,14.57
2022-08-18T21:30:35.870Z,14.57
2022-08-18T21:33:20.335Z,14.57
2022-08-18T21:35:48.649Z,14.83
2022-08-18T21:38:16.970Z,14.37
2022-08-18T21:40:48.432Z,14.60
2022-08-18T21:43:36.370Z,14.57
2022-08-18T21:46:04.821Z,13.97
2022-08-18T21:48:34.269Z,14.07
2022-08-18T21:51:04.203Z,15.43
2022-08-18T21:53:35.728Z,13.30
2022-08-18T21:56:03.949Z,20.63
2022-08-18T21:58:41.429Z,15.90
2022-08-18T22:01:14.386Z,13.47
2022-08-18T22:03:54.633Z,14.57
2022-08-18T22:06:32.057Z,14.23
2022-08-18T22:09:24.431Z,15.43
2022-08-18T22:12:33.725Z,14.90
2022-08-18T22:15:09.017Z,14.23
2022-08-18T22:17:45.087Z,14.80
2022-08-18T22:20:41.124Z,15.47
2022-08-18T22:24:02.268Z,15.97
2022-08-18T22:26:32.988Z,15.67
2022-08-18T22:29:04.933Z,15.87
2022-08-18T22:31:36.873Z,17.10
2022-08-18T22:34:07.717Z,17.10
2022-08-18T22:36:37.968Z,18.13
2022-08-18T22:39:08.644Z,17.57
2022-08-18T22:41:36.857Z,17.60
2022-08-18T22:44:05.685Z,18.80
2022-08-18T22:46:35.727Z,19.13
2022-08-18T22:49:04.513Z,21.27
2022-08-18T22:51:33.529Z,20.97
2022-08-18T22:54:01.674Z,20.80
2022-08-18T22:56:34.588Z,21.40
2022-08-18T22:59:13.448Z,21.97
2022-08-18T23:01:48.540Z,23.23
2022-08-18T23:04:17.867Z,23.83
2022-08-18T23:06:52.316Z,24.03
2022-08-18T23:09:22.917Z,24.70
2022-08-18T23:11:51.449Z,24.87
2022-08-18T23:14:19.996Z,25.37
2022-08-18T23:16:49.958Z,25.27
2022-08-18T23:19:19.617Z,26.50
2022-08-18T23:21:48.738Z,26.37
2022-08-18T23:24:22.558Z,27.20
2022-08-18T23:26:51.167Z,25.63
2022-08-18T23:29:22.257Z,26.13
2022-08-18T23:31:52.755Z,27.13
2022-08-18T23:34:23.200Z,26.40
2022-08-18T23:36:56.489Z,26.37
2022-08-18T23:39:25.006Z,27.13
2022-08-18T23:41:53.487Z,26.97
2022-08-18T23:44:23.897Z,26.50
2022-08-18T23:46:58.255Z,27.47
2022-08-18T23:49:28.756Z,27.37
2022-08-18T23:51:57.861Z,27.00
2022-08-18T23:54:27.947Z,27.87
2022-08-18T23:56:56.256Z,26.90
2022-08-18T23:59:25.908Z,26.57
